Time;durP1;ratioP1;P1;durP2;ratioP2;P2;SDS_P1;SDS_P2;PMS_P1;PMS_P2;Temp;Humidity;BMP_temperature;BMP_pressure;BME280_temperature;BME280_humidity;BME280_pressure;Samples;Min_cycle;Max_cycle;Signal;HPM_P1;HPM_P2
2022/11/26 00:00:20;;;;;;;11.80;4.50;;;9.60;99.90;;;;;;5029412;28;20172;-78
2022/11/26 00:02:46;;;;;;;9.20;4.45;;;9.60;99.90;;;;;;5026713;28;21102;-76
2022/11/26 00:05:13;;;;;;;10.27;3.70;;;9.50;99.90;;;;;;5030896;28;20176;-77
2022/11/26 00:07:41;;;;;;;8.10;4.72;;;9.50;99.90;;;;;;5029093;28;20243;-77
2022/11/26 00:10:16;;;;;;;11.13;4.70;;;9.50;99.90;;;;;;5029513;28;20197;-75
2022/11/26 00:12:42;;;;;;;7.82;4.97;;;9.40;99.90;;;;;;5026802;28;20209;-75
2022/11/26 00:15:28;;;;;;;13.97;4.60;;;9.40;99.90;;;;;;5027820;28;20633;-75
2022/11/26 00:17:54;;;;;;;8.52;4.80;;;9.40;99.90;;;;;;5028505;28;20221;-75
2022/11/26 00:20:30;;;;;;;14.73;5.10;;;9.30;99.90;;;;;;5029036;28;20162;-75
2022/11/26 00:23:00;;;;;;;11.30;4.28;;;9.30;99.90;;;;;;5028173;28;20184;-75
2022/11/26 00:25:47;;;;;;;11.07;4.50;;;9.30;99.90;;;;;;5029035;28;20615;-75
2022/11/26 00:28:28;;;;;;;10.82;4.32;;;9.20;99.90;;;;;;5028361;28;20193;-75
2022/11/26 00:30:56;;;;;;;13.60;4.78;;;9.20;99.90;;;;;;5028728;28;20172;-75
2022/11/26 00:33:23;;;;;;;12.57;5.10;;;9.20;99.90;;;;;;5026696;28;20525;-75
2022/11/26 00:36:00;;;;;;;9.55;4.78;;;9.10;99.90;;;;;;5028746;28;20197;-75
2022/11/26 00:38:28;;;;;;;10.88;4.72;;;9.10;99.90;;;;;;5028528;28;20204;-75
2022/11/26 00:40:54;;;;;;;12.57;4.43;;;9.10;99.90;;;;;;5028850;28;20702;-75
2022/11/26 00:43:20;;;;;;;17.57;5.20;;;9.10;99.90;;;;;;5032811;28;20269;-75
2022/11/26 00:45:46;;;;;;;11.90;5.87;;;9.10;99.90;;;;;;5032377;28;20663;-75
2022/11/26 00:48:14;;;;;;;11.20;5.53;;;9.00;99.90;;;;;;5034310;28;20212;-75
2022/11/26 00:50:48;;;;;;;8.27;4.80;;;9.00;99.90;;;;;;5043597;28;20173;-75
2022/11/26 00:53:17;;;;;;;7.60;4.95;;;9.00;99.90;;;;;;5043658;28;20172;-75
2022/11/26 00:55:45;;;;;;;13.52;5.28;;;8.90;99.90;;;;;;5043604;28;20167;-75
2022/11/26 00:58:26;;;;;;;11.73;5.30;;;8.90;99.90;;;;;;5052014;28;20250;-74
2022/11/26 01:00:54;;;;;;;13.38;5.43;;;8.90;99.90;;;;;;5050331;28;20223;-75
2022/11/26 01:03:20;;;;;;;11.20;5.47;;;8.90;99.90;;;;;;5051403;28;20177;-75
2022/11/26 01:05:52;;;;;;;10.23;5.57;;;8.90;99.90;;;;;;5051768;28;20253;-75
2022/11/26 01:08:26;;;;;;;12.95;5.35;;;8.90;99.90;;;;;;5051911;28;21162;-74
2022/11/26 01:10:52;;;;;;;13.95;6.28;;;8.80;99.90;;;;;;5051613;28;20171;-74
2022/11/26 01:13:17;;;;;;;12.40;5.80;;;8.80;99.90;;;;;;5051230;28;20821;-75
2022/11/26 01:15:43;;;;;;;11.90;5.70;;;8.80;99.90;;;;;;5050519;28;20651;-76
2022/11/26 01:18:16;;;;;;;10.73;5.03;;;8.80;99.90;;;;;;5051088;28;20244;-76
2022/11/26 01:20:43;;;;;;;8.90;5.32;;;8.80;99.90;;;;;;5055411;28;20584;-76
2022/11/26 01:23:12;;;;;;;13.50;7.00;;;8.80;99.90;;;;;;5050050;28;20191;-75
2022/11/26 01:25:39;;;;;;;11.30;5.57;;;8.80;99.90;;;;;;5051492;28;20162;-76
2022/11/26 01:28:08;;;;;;;11.93;5.78;;;8.80;99.90;;;;;;5051498;28;20250;-76
2022/11/26 01:30:34;;;;;;;10.48;5.60;;;8.80;99.90;;;;;;5051111;28;20161;-76
2022/11/26 01:33:00;;;;;;;15.70;5.90;;;8.80;99.90;;;;;;5050750;28;20223;-76
2022/11/26 01:35:27;;;;;;;10.48;5.50;;;8.80;99.90;;;;;;5051400;28;20567;-76
2022/11/26 01:37:53;;;;;;;31.52;6.80;;;8.80;99.90;;;;;;5051191;28;20263;-76
2022/11/26 01:40:39;;;;;;;8.80;6.50;;;8.90;99.90;;;;;;5050066;28;20264;-76
2022/11/26 01:43:10;;;;;;;9.27;6.28;;;8.90;99.90;;;;;;5050321;28;20625;-76
2022/11/26 01:45:36;;;;;;;11.95;5.68;;;9.00;99.90;;;;;;5049958;28;20169;-76
2022/11/26 01:48:10;;;;;;;11.50;6.20;;;9.00;99.90;;;;;;5049528;28;20192;-76
2022/11/26 01:50:50;;;;;;;14.27;6.00;;;9.00;99.90;;;;;;5051178;28;20180;-76
2022/11/26 01:53:48;;;;;;;13.30;6.53;;;9.00;99.90;;;;;;5048930;28;20229;-76
2022/11/26 01:56:24;;;;;;;15.43;5.80;;;9.00;99.90;;;;;;5045441;28;20307;-76
2022/11/26 01:58:55;;;;;;;13.10;5.45;;;9.00;99.90;;;;;;5034838;28;20204;-76
2022/11/26 02:01:21;;;;;;;16.92;6.82;;;9.00;99.90;;;;;;5050599;28;20268;-76
2022/11/26 02:04:18;;;;;;;16.10;7.53;;;8.90;99.90;;;;;;5048825;28;20271;-76
2022/11/26 02:06:46;;;;;;;12.38;6.90;;;8.90;99.90;;;;;;5049290;28;20571;-76
2022/11/26 02:09:13;;;;;;;11.48;6.70;;;8.80;99.90;;;;;;5050643;28;20192;-76
2022/11/26 02:11:39;;;;;;;16.77;6.65;;;8.80;99.90;;;;;;5049069;28;20173;-76
2022/11/26 02:14:12;;;;;;;19.38;8.02;;;8.80;99.90;;;;;;5049734;28;20192;-74
2022/11/26 02:17:02;;;;;;;10.95;6.45;;;8.70;99.90;;;;;;5049459;28;20207;-74
2022/11/26 02:19:54;;;;;;;11.38;6.65;;;8.70;99.90;;;;;;5050412;28;20595;-75
2022/11/26 02:22:45;;;;;;;10.02;5.72;;;8.60;99.90;;;;;;5049536;28;20195;-74
2022/11/26 02:25:50;;;;;;;16.85;6.95;;;8.60;99.90;;;;;;5050455;28;20176;-74
2022/11/26 02:28:45;;;;;;;14.38;7.45;;;8.50;99.90;;;;;;5049835;28;20197;-74
2022/11/26 02:31:25;;;;;;;13.27;6.90;;;8.50;99.90;;;;;;5048775;28;20169;-74
2022/11/26 02:34:07;;;;;;;12.93;7.10;;;8.50;99.90;;;;;;5050150;28;20168;-77
2022/11/26 02:36:51;;;;;;;11.23;7.30;;;8.40;99.90;;;;;;5050766;28;20169;-75
2022/11/26 02:39:21;;;;;;;13.05;6.90;;;8.40;99.90;;;;;;5049935;28;20226;-75
2022/11/26 02:41:49;;;;;;;10.88;6.60;;;8.40;99.90;;;;;;5049638;28;20169;-75
2022/11/26 02:44:19;;;;;;;14.02;7.72;;;8.40;99.90;;;;;;5049468;28;20177;-75
2022/11/26 02:46:48;;;;;;;16.08;8.15;;;8.40;99.90;;;;;;5048776;28;20227;-75
2022/11/26 02:49:19;;;;;;;12.88;7.40;;;8.40;99.90;;;;;;5048449;28;20236;-75
2022/11/26 02:51:51;;;;;;;12.70;5.90;;;8.40;99.90;;;;;;5049571;28;20503;-75
2022/11/26 02:54:18;;;;;;;8.23;6.22;;;8.30;99.90;;;;;;5047889;28;20257;-75
2022/11/26 02:56:45;;;;;;;12.32;7.13;;;8.30;99.90;;;;;;5048446;28;20172;-75
2022/11/26 02:59:11;;;;;;;14.80;6.78;;;8.30;99.90;;;;;;5048357;28;20170;-75
2022/11/26 03:01:51;;;;;;;13.10;7.20;;;8.40;99.90;;;;;;5031630;28;20885;-75
2022/11/26 03:04:21;;;;;;;15.10;6.63;;;8.40;99.90;;;;;;5047319;28;20177;-75
2022/11/26 03:06:48;;;;;;;17.55;7.93;;;8.40;99.90;;;;;;5049633;28;20176;-75
2022/11/26 03:09:17;;;;;;;12.65;7.28;;;8.40;99.90;;;;;;5049410;28;20947;-75
2022/11/26 03:11:44;;;;;;;12.98;7.50;;;8.30;99.90;;;;;;5050652;28;20169;-75
2022/11/26 03:14:09;;;;;;;13.23;6.80;;;8.30;99.90;;;;;;5049419;28;20522;-75
2022/11/26 03:16:35;;;;;;;15.60;9.20;;;8.30;99.90;;;;;;5049285;28;20165;-75
2022/11/26 03:19:01;;;;;;;14.13;7.10;;;8.30;99.90;;;;;;5049415;28;20212;-75
2022/11/26 03:21:27;;;;;;;19.50;8.67;;;8.30;99.90;;;;;;5048975;28;20173;-75
2022/11/26 03:23:52;;;;;;;13.07;7.90;;;8.30;99.90;;;;;;5048891;28;20582;-75
2022/11/26 03:26:18;;;;;;;16.03;7.97;;;8.30;99.90;;;;;;5047776;28;20177;-75
2022/11/26 03:28:44;;;;;;;19.33;8.77;;;8.30;99.90;;;;;;5049250;28;20680;-75
2022/11/26 03:31:10;;;;;;;15.23;8.47;;;8.30;99.90;;;;;;5048775;28;20165;-75
2022/11/26 03:33:35;;;;;;;12.50;8.03;;;8.20;99.90;;;;;;5048905;28;20169;-75
2022/11/26 03:36:01;;;;;;;12.27;7.80;;;8.20;99.90;;;;;;5047748;28;20165;-75
2022/11/26 03:38:27;;;;;;;12.00;8.13;;;8.20;99.90;;;;;;5049111;28;20778;-75
2022/11/26 03:40:57;;;;;;;15.93;7.00;;;8.20;99.90;;;;;;5048884;28;20165;-75
2022/11/26 03:43:23;;;;;;;17.52;7.95;;;8.20;99.90;;;;;;5048475;28;20200;-75
2022/11/26 03:45:49;;;;;;;18.40;8.73;;;8.20;99.90;;;;;;5048926;28;20493;-75
2022/11/26 03:48:15;;;;;;;13.90;7.83;;;8.20;99.90;;;;;;5049569;28;20200;-75
2022/11/26 03:50:40;;;;;;;11.03;7.57;;;8.20;99.90;;;;;;5050287;28;20184;-75
2022/11/26 03:53:06;;;;;;;15.03;6.63;;;8.10;99.90;;;;;;5047938;28;20595;-75
2022/11/26 03:55:32;;;;;;;15.70;7.67;;;8.10;99.90;;;;;;5030928;28;20222;-75
2022/11/26 03:57:57;;;;;;;15.10;7.70;;;8.10;99.90;;;;;;5047562;28;20297;-75
2022/11/26 04:00:23;;;;;;;14.93;6.77;;;8.10;99.90;;;;;;5049085;28;20195;-75
2022/11/26 04:02:49;;;;;;;11.70;7.13;;;8.10;99.90;;;;;;5046676;28;20238;-75
2022/11/26 04:05:15;;;;;;;11.20;5.90;;;8.10;99.90;;;;;;5049015;28;20855;-75
2022/11/26 04:07:40;;;;;;;10.70;6.27;;;8.00;99.90;;;;;;5048665;28;20192;-75
2022/11/26 04:10:07;;;;;;;13.07;7.00;;;8.10;99.90;;;;;;5048761;28;20288;-75
2022/11/26 04:12:33;;;;;;;15.45;7.35;;;8.00;99.90;;;;;;5047887;28;20165;-75
2022/11/26 04:14:58;;;;;;;9.77;6.07;;;8.00;99.90;;;;;;5048861;28;20711;-75
2022/11/26 04:17:24;;;;;;;13.33;6.00;;;8.00;99.90;;;;;;5050656;28;20203;-75
2022/11/26 04:19:50;;;;;;;11.60;6.37;;;8.00;99.90;;;;;;5052931;28;20165;-75
2022/11/26 04:22:15;;;;;;;9.03;6.60;;;8.00;99.90;;;;;;5051782;28;20280;-75
2022/11/26 04:24:41;;;;;;;10.37;5.30;;;8.00;99.90;;;;;;5052529;28;20169;-75
2022/11/26 04:27:07;;;;;;;11.10;5.67;;;8.00;99.90;;;;;;5055092;28;20677;-75
2022/11/26 04:29:32;;;;;;;13.70;6.20;;;8.00;99.90;;;;;;5052593;28;20287;-75
2022/11/26 04:31:58;;;;;;;12.30;6.77;;;7.90;99.90;;;;;;5050566;28;20200;-75
2022/11/26 04:34:24;;;;;;;12.57;5.73;;;7.90;99.90;;;;;;5052402;28;20552;-75
2022/11/26 04:36:50;;;;;;;11.60;5.47;;;7.90;99.90;;;;;;5052418;28;20165;-75
2022/11/26 04:39:15;;;;;;;10.23;5.77;;;7.90;99.90;;;;;;5052049;28;20169;-75
2022/11/26 04:41:41;;;;;;;9.40;5.77;;;7.90;99.90;;;;;;5052292;28;20207;-75
2022/11/26 04:44:07;;;;;;;11.05;5.40;;;7.90;99.90;;;;;;5051702;28;20642;-75
2022/11/26 04:46:33;;;;;;;7.47;5.23;;;7.90;99.90;;;;;;5052387;28;20189;-75
2022/11/26 04:48:59;;;;;;;6.20;4.20;;;7.90;99.90;;;;;;5050651;28;20201;-75
2022/11/26 04:51:24;;;;;;;8.83;4.80;;;7.90;99.90;;;;;;5034151;28;20177;-75
2022/11/26 04:53:50;;;;;;;10.83;5.17;;;7.80;99.90;;;;;;5033125;28;20586;-74
2022/11/26 04:56:16;;;;;;;9.63;5.67;;;7.80;99.90;;;;;;5051007;28;20223;-74
2022/11/26 04:58:41;;;;;;;8.20;5.00;;;7.80;99.90;;;;;;5052010;28;20672;-75
2022/11/26 05:01:07;;;;;;;8.20;4.90;;;7.80;99.90;;;;;;5050409;28;20173;-75
2022/11/26 05:03:35;;;;;;;10.13;4.80;;;7.80;99.90;;;;;;5053966;28;20247;-75
2022/11/26 05:06:00;;;;;;;9.95;5.05;;;7.80;99.90;;;;;;5051914;28;20177;-75
2022/11/26 05:08:26;;;;;;;7.27;5.00;;;7.80;99.90;;;;;;5050529;28;20231;-75
2022/11/26 05:10:54;;;;;;;9.10;4.87;;;7.80;99.90;;;;;;5050385;28;20161;-75
2022/11/26 05:13:20;;;;;;;9.63;5.45;;;7.80;99.90;;;;;;5051094;28;20812;-75
2022/11/26 05:15:46;;;;;;;8.05;4.30;;;7.80;99.90;;;;;;5050154;28;20161;-75
2022/11/26 05:18:11;;;;;;;6.57;4.27;;;7.80;99.90;;;;;;5051500;28;20249;-75
2022/11/26 05:20:37;;;;;;;12.37;4.87;;;7.70;99.90;;;;;;5051341;28;20622;-75
2022/11/26 05:23:03;;;;;;;11.80;5.07;;;7.70;99.90;;;;;;5049527;28;20199;-75
2022/11/26 05:25:29;;;;;;;8.33;3.67;;;7.70;99.90;;;;;;5051264;28;20208;-75
2022/11/26 05:27:54;;;;;;;12.17;4.63;;;7.70;99.90;;;;;;5050948;28;20595;-75
2022/11/26 05:30:20;;;;;;;14.67;5.03;;;7.60;99.90;;;;;;5051213;28;20286;-75
2022/11/26 05:32:46;;;;;;;14.33;4.37;;;7.60;99.90;;;;;;5040089;28;20181;-75
2022/11/26 05:35:12;;;;;;;8.33;3.70;;;7.60;99.90;;;;;;5045644;28;20180;-75
2022/11/26 05:37:37;;;;;;;6.43;4.47;;;7.60;99.90;;;;;;5051336;28;20200;-75
2022/11/26 05:40:04;;;;;;;12.20;4.43;;;7.60;99.90;;;;;;5051562;28;20197;-75
2022/11/26 05:42:30;;;;;;;10.25;4.50;;;7.60;99.90;;;;;;5050736;28;20176;-75
2022/11/26 05:44:55;;;;;;;8.80;4.67;;;7.60;99.90;;;;;;5051393;28;20172;-75
2022/11/26 05:47:21;;;;;;;8.57;3.93;;;7.60;99.90;;;;;;5049629;28;20228;-75
2022/11/26 05:49:47;;;;;;;12.60;4.90;;;7.60;99.90;;;;;;5050918;28;20197;-75
2022/11/26 05:52:13;;;;;;;7.20;4.13;;;7.60;99.90;;;;;;5050081;28;20248;-76
2022/11/26 05:54:38;;;;;;;8.13;4.83;;;7.60;99.90;;;;;;5049788;28;20177;-75
2022/11/26 05:57:04;;;;;;;9.20;4.63;;;7.60;99.90;;;;;;5050606;28;20165;-75
2022/11/26 05:59:30;;;;;;;8.90;4.10;;;7.60;99.90;;;;;;5050892;28;20622;-75
2022/11/26 06:01:56;;;;;;;9.10;4.53;;;7.60;99.90;;;;;;5050377;28;20168;-75
2022/11/26 06:04:21;;;;;;;8.43;3.37;;;7.60;99.90;;;;;;5032773;28;20177;-75
2022/11/26 06:06:47;;;;;;;7.57;4.03;;;7.60;99.90;;;;;;5050567;28;20666;-75
2022/11/26 06:09:13;;;;;;;9.03;4.83;;;7.60;99.90;;;;;;5050754;28;20722;-74
2022/11/26 06:11:39;;;;;;;7.63;3.73;;;7.60;99.90;;;;;;5050096;28;20169;-75
2022/11/26 06:14:04;;;;;;;7.07;3.70;;;7.60;99.90;;;;;;5051135;28;20572;-74
2022/11/26 06:16:30;;;;;;;8.07;4.17;;;7.60;99.90;;;;;;5051160;28;20570;-75
2022/11/26 06:18:58;;;;;;;6.33;4.20;;;7.60;99.90;;;;;;5053402;28;20197;-74
2022/11/26 06:21:23;;;;;;;10.95;4.70;;;7.60;99.90;;;;;;5049828;28;20567;-74
2022/11/26 06:23:49;;;;;;;8.43;4.00;;;7.60;99.90;;;;;;5050710;28;20638;-74
2022/11/26 06:26:15;;;;;;;7.10;3.63;;;7.60;99.90;;;;;;5050891;28;20729;-74
2022/11/26 06:28:40;;;;;;;6.30;4.03;;;7.60;99.90;;;;;;5050498;28;20234;-74
2022/11/26 06:31:08;;;;;;;8.87;4.37;;;7.50;99.90;;;;;;5050935;28;20184;-74
2022/11/26 06:33:35;;;;;;;8.05;4.25;;;7.50;99.90;;;;;;5051080;28;20295;-74
2022/11/26 06:36:03;;;;;;;7.57;3.85;;;7.50;99.90;;;;;;5049617;28;20211;-74
2022/11/26 06:38:29;;;;;;;7.55;4.00;;;7.50;99.90;;;;;;5050176;28;20197;-73
2022/11/26 06:41:03;;;;;;;11.77;3.22;;;7.50;99.90;;;;;;5049987;28;20169;-73
2022/11/26 06:43:29;;;;;;;8.48;3.47;;;7.50;99.90;;;;;;5050294;28;20206;-74
2022/11/26 06:46:01;;;;;;;9.05;3.30;;;7.50;99.90;;;;;;5050777;28;20222;-74
2022/11/26 06:48:27;;;;;;;7.40;4.72;;;7.50;99.90;;;;;;5050095;28;20346;-74
2022/11/26 06:50:53;;;;;;;7.80;4.00;;;7.50;99.90;;;;;;5050370;28;20255;-75
2022/11/26 06:53:18;;;;;;;9.77;4.90;;;7.50;99.90;;;;;;5050301;28;20307;-74
2022/11/26 06:55:44;;;;;;;7.57;3.90;;;7.50;99.90;;;;;;5051298;28;20214;-74
2022/11/26 06:58:10;;;;;;;7.10;4.23;;;7.40;99.90;;;;;;5050505;28;20185;-74
2022/11/26 07:00:36;;;;;;;8.97;5.00;;;7.50;99.90;;;;;;5049966;28;20586;-74
2022/11/26 07:03:02;;;;;;;7.97;4.27;;;7.40;99.90;;;;;;5049967;28;20250;-74
2022/11/26 07:05:27;;;;;;;6.53;5.07;;;7.40;99.90;;;;;;5049865;28;20165;-74
2022/11/26 07:07:53;;;;;;;10.17;4.53;;;7.40;99.90;;;;;;5050178;28;21239;-75
2022/11/26 07:10:19;;;;;;;8.03;4.37;;;7.40;99.90;;;;;;5048634;28;20192;-74
2022/11/26 07:12:45;;;;;;;6.67;3.93;;;7.40;99.90;;;;;;5050101;28;20160;-74
2022/11/26 07:15:11;;;;;;;7.67;4.10;;;7.40;99.90;;;;;;5049967;28;20165;-74
2022/11/26 07:17:36;;;;;;;6.03;3.65;;;7.40;99.90;;;;;;5049818;28;20661;-74
2022/11/26 07:20:03;;;;;;;8.40;4.43;;;7.40;99.90;;;;;;5049669;28;20173;-74
2022/11/26 07:22:29;;;;;;;8.68;3.78;;;7.50;99.90;;;;;;5049818;28;20177;-74
2022/11/26 07:24:55;;;;;;;9.37;4.70;;;7.50;99.90;;;;;;5049540;28;20173;-74
2022/11/26 07:27:20;;;;;;;10.77;4.50;;;7.50;99.90;;;;;;5047206;28;20190;-74
2022/11/26 07:29:46;;;;;;;8.77;3.77;;;7.50;99.90;;;;;;5035201;28;21256;-74
2022/11/26 07:32:12;;;;;;;8.33;4.43;;;7.50;99.90;;;;;;5050275;28;20169;-75
2022/11/26 07:34:38;;;;;;;9.67;4.80;;;7.50;99.90;;;;;;5053886;28;20201;-75
2022/11/26 07:37:03;;;;;;;7.17;3.83;;;7.60;99.90;;;;;;5049476;28;20180;-75
2022/11/26 07:39:29;;;;;;;10.70;4.23;;;7.60;99.90;;;;;;5048385;28;20726;-75
2022/11/26 07:41:55;;;;;;;10.03;4.87;;;7.60;99.90;;;;;;5047953;28;20344;-75
2022/11/26 07:44:20;;;;;;;10.70;4.87;;;7.60;99.90;;;;;;5048797;28;20173;-74
2022/11/26 07:46:46;;;;;;;10.33;4.40;;;7.60;99.90;;;;;;5049300;28;20176;-74
2022/11/26 07:49:12;;;;;;;11.90;4.40;;;7.60;99.90;;;;;;5048378;28;20200;-75
2022/11/26 07:51:38;;;;;;;9.23;5.37;;;7.60;99.90;;;;;;5053898;28;20244;-74
2022/11/26 07:54:06;;;;;;;10.95;4.13;;;7.70;99.90;;;;;;5054847;28;20586;-74
2022/11/26 07:56:32;;;;;;;5.85;3.40;;;7.70;99.90;;;;;;5055919;28;20528;-75
2022/11/26 07:58:58;;;;;;;6.20;3.67;;;7.80;99.90;;;;;;5056063;28;20188;-75
2022/11/26 08:01:27;;;;;;;6.37;4.23;;;7.80;99.90;;;;;;5055802;28;20580;-76
2022/11/26 08:03:52;;;;;;;8.48;4.03;;;7.90;99.90;;;;;;5056073;28;20181;-74
2022/11/26 08:06:22;;;;;;;6.23;4.17;;;7.90;99.90;;;;;;5056083;28;20164;-75
2022/11/26 08:08:48;;;;;;;6.82;4.13;;;7.90;99.90;;;;;;5056771;28;20546;-75
2022/11/26 08:11:20;;;;;;;8.18;4.28;;;8.00;99.90;;;;;;5059266;28;20196;-75
2022/11/26 08:13:46;;;;;;;7.15;3.85;;;8.00;99.90;;;;;;5057654;28;20176;-75
2022/11/26 08:16:12;;;;;;;9.43;4.03;;;8.10;99.90;;;;;;5054968;28;20165;-75
2022/11/26 08:18:39;;;;;;;9.65;4.53;;;8.20;99.90;;;;;;5054695;28;20550;-75
2022/11/26 08:21:05;;;;;;;9.90;4.00;;;8.30;99.90;;;;;;5038619;28;20169;-75
2022/11/26 08:23:31;;;;;;;7.82;4.05;;;8.30;99.90;;;;;;5056065;28;20179;-76
2022/11/26 08:25:58;;;;;;;5.78;3.28;;;8.40;99.90;;;;;;5054813;28;20614;-75
2022/11/26 08:28:24;;;;;;;5.95;4.25;;;8.50;99.90;;;;;;5037706;28;20554;-75
2022/11/26 08:30:49;;;;;;;9.33;4.77;;;8.60;99.90;;;;;;5056101;28;20172;-75
2022/11/26 08:33:15;;;;;;;9.90;4.30;;;8.60;99.90;;;;;;5055718;28;20157;-75
2022/11/26 08:35:41;;;;;;;6.90;4.73;;;8.70;99.90;;;;;;5056006;28;20608;-75
2022/11/26 08:38:07;;;;;;;5.10;3.80;;;8.70;99.90;;;;;;5055895;28;20181;-74
2022/11/26 08:40:35;;;;;;;11.30;5.27;;;8.70;99.90;;;;;;5056209;28;20169;-75
2022/11/26 08:43:01;;;;;;;4.78;4.07;;;8.70;99.90;;;;;;5054632;28;20506;-75
2022/11/26 08:45:27;;;;;;;7.30;4.70;;;8.70;99.90;;;;;;5056044;28;20303;-75
2022/11/26 08:47:54;;;;;;;9.33;4.40;;;8.60;99.90;;;;;;5054806;28;20227;-75
2022/11/26 08:50:20;;;;;;;10.20;3.92;;;8.70;99.90;;;;;;5038582;28;20223;-75
2022/11/26 08:52:45;;;;;;;7.67;4.30;;;8.70;99.90;;;;;;5036070;28;20158;-75
2022/11/26 08:55:11;;;;;;;8.60;5.60;;;8.70;99.90;;;;;;5035736;28;20188;-75
2022/11/26 08:57:37;;;;;;;6.90;4.40;;;8.80;99.90;;;;;;5035815;28;20185;-75
2022/11/26 09:00:04;;;;;;;7.03;5.00;;;8.90;99.90;;;;;;5035667;28;20165;-75
2022/11/26 09:02:29;;;;;;;6.82;3.90;;;8.90;99.90;;;;;;5032254;28;20185;-76
2022/11/26 09:04:55;;;;;;;6.80;3.70;;;9.00;99.90;;;;;;5030908;28;20170;-75
2022/11/26 09:07:21;;;;;;;6.33;4.40;;;9.10;99.90;;;;;;5031060;28;20186;-75
2022/11/26 09:09:47;;;;;;;8.65;5.40;;;9.10;99.90;;;;;;5032069;28;20215;-75
2022/11/26 09:12:13;;;;;;;9.37;4.43;;;9.10;99.90;;;;;;5032076;28;20262;-75
2022/11/26 09:14:40;;;;;;;6.87;4.47;;;9.20;99.90;;;;;;5030753;28;20241;-75
2022/11/26 09:17:06;;;;;;;8.57;4.75;;;9.20;99.90;;;;;;5033146;28;20687;-75
2022/11/26 09:19:32;;;;;;;9.02;4.28;;;9.30;99.90;;;;;;5032142;28;20166;-75
2022/11/26 09:21:58;;;;;;;8.35;4.25;;;9.30;99.90;;;;;;5032211;28;20587;-76
2022/11/26 09:24:24;;;;;;;5.80;3.93;;;9.30;99.90;;;;;;5034363;28;20235;-76
2022/11/26 09:26:50;;;;;;;8.57;4.40;;;9.40;99.90;;;;;;5033057;28;21130;-75
2022/11/26 09:29:20;;;;;;;7.13;3.78;;;9.50;99.90;;;;;;5030805;28;20613;-76
2022/11/26 09:31:46;;;;;;;8.57;4.50;;;9.50;99.90;;;;;;5031927;28;20173;-74
2022/11/26 09:34:12;;;;;;;8.20;4.65;;;9.60;99.90;;;;;;5030883;28;20198;-74
2022/11/26 09:36:38;;;;;;;5.40;4.00;;;9.70;99.90;;;;;;5030498;28;20638;-74
2022/11/26 09:39:05;;;;;;;8.98;4.60;;;9.70;99.90;;;;;;5030859;28;20608;-74
2022/11/26 09:41:39;;;;;;;9.63;4.20;;;9.80;99.90;;;;;;5030399;28;20637;-74
2022/11/26 09:44:14;;;;;;;8.18;3.85;;;9.80;99.90;;;;;;5031830;28;20173;-75
2022/11/26 09:47:05;;;;;;;6.07;4.38;;;9.90;99.90;;;;;;5031521;28;20642;-74
2022/11/26 09:49:41;;;;;;;6.43;4.10;;;10.00;99.90;;;;;;5031627;28;20197;-74
2022/11/26 09:52:09;;;;;;;6.97;3.90;;;10.10;99.90;;;;;;5031172;28;20506;-75
2022/11/26 09:54:37;;;;;;;5.93;2.88;;;10.20;99.90;;;;;;5030280;28;20173;-75
2022/11/26 09:57:27;;;;;;;8.98;4.30;;;10.40;99.90;;;;;;5031329;28;20634;-75
2022/11/26 09:59:55;;;;;;;8.35;4.60;;;10.50;99.90;;;;;;5031432;28;20178;-75
2022/11/26 10:02:21;;;;;;;4.85;3.75;;;10.50;99.90;;;;;;5031343;28;20181;-75
2022/11/26 10:04:47;;;;;;;11.95;5.50;;;10.60;99.90;;;;;;5030488;28;20170;-75
2022/11/26 10:07:33;;;;;;;11.07;4.40;;;10.70;99.90;;;;;;5029823;28;20200;-75
2022/11/26 10:10:33;;;;;;;7.97;4.07;;;10.80;99.90;;;;;;5029941;28;20197;-75
2022/11/26 10:13:34;;;;;;;8.43;4.45;;;10.90;99.90;;;;;;5029743;28;20272;-75
2022/11/26 10:16:40;;;;;;;6.45;4.13;;;10.90;99.90;;;;;;5030673;28;20161;-75
2022/11/26 10:19:31;;;;;;;7.53;4.05;;;10.90;99.90;;;;;;5013566;28;20206;-76
2022/11/26 10:22:02;;;;;;;7.13;4.00;;;10.90;99.90;;;;;;5000827;28;21006;-76
2022/11/26 10:24:37;;;;;;;6.95;3.95;;;11.00;99.90;;;;;;5031050;28;20178;-75
2022/11/26 10:27:25;;;;;;;8.10;3.88;;;11.00;99.90;;;;;;5030823;28;20165;-75
2022/11/26 10:29:58;;;;;;;7.40;3.88;;;11.10;99.90;;;;;;5030887;28;20205;-75
2022/11/26 10:32:27;;;;;;;7.70;4.30;;;11.10;99.90;;;;;;5029541;28;20661;-75
2022/11/26 10:34:55;;;;;;;8.00;3.60;;;11.20;99.90;;;;;;5030874;28;20532;-75
2022/11/26 10:37:25;;;;;;;7.95;3.42;;;11.20;99.90;;;;;;5029581;28;20217;-75
2022/11/26 10:40:13;;;;;;;11.68;4.00;;;11.20;99.90;;;;;;5033312;28;20178;-75
2022/11/26 10:42:42;;;;;;;6.53;4.07;;;11.20;99.90;;;;;;5030552;28;20181;-76
2022/11/26 10:45:23;;;;;;;7.22;4.00;;;11.20;99.90;;;;;;5029027;28;20525;-76
2022/11/26 10:47:49;;;;;;;6.90;3.80;;;11.30;99.90;;;;;;5030364;28;20263;-76
2022/11/26 10:50:23;;;;;;;7.77;4.43;;;11.30;99.90;;;;;;5030405;28;20186;-76
2022/11/26 10:52:51;;;;;;;8.95;4.07;;;11.40;99.90;;;;;;5030148;28;20231;-76
2022/11/26 10:55:28;;;;;;;8.88;4.15;;;11.50;99.90;;;;;;5030063;28;20169;-76
2022/11/26 10:57:57;;;;;;;9.32;4.10;;;11.50;99.90;;;;;;5030201;28;20276;-75
2022/11/26 11:00:48;;;;;;;10.88;3.53;;;11.60;99.90;;;;;;5012481;28;20177;-76
2022/11/26 11:03:37;;;;;;;11.93;3.85;;;11.60;99.90;;;;;;5021113;28;20248;-75
2022/11/26 11:06:25;;;;;;;10.73;3.80;;;11.60;99.90;;;;;;5030177;28;20188;-76
2022/11/26 11:08:51;;;;;;;9.65;4.03;;;11.70;99.90;;;;;;5028509;28;20201;-75
2022/11/26 11:11:22;;;;;;;5.95;3.83;;;11.70;99.90;;;;;;5030063;28;20170;-76
2022/11/26 11:13:48;;;;;;;7.32;3.33;;;11.80;99.90;;;;;;5030036;28;20177;-75
2022/11/26 11:16:20;;;;;;;10.93;3.47;;;11.80;99.90;;;;;;5030021;28;20220;-75
2022/11/26 11:18:48;;;;;;;8.40;3.60;;;11.90;99.90;;;;;;5030884;28;20205;-75
2022/11/26 11:21:17;;;;;;;7.63;4.10;;;11.90;99.90;;;;;;5028096;28;20705;-75
2022/11/26 11:23:43;;;;;;;11.93;5.93;;;12.00;99.90;;;;;;5029707;28;20575;-75
2022/11/26 11:26:22;;;;;;;15.43;5.40;;;12.00;99.90;;;;;;5011596;28;20185;-75
2022/11/26 11:28:53;;;;;;;9.90;3.80;;;12.00;99.90;;;;;;5029756;28;20193;-75
2022/11/26 11:31:25;;;;;;;7.63;3.35;;;12.10;99.90;;;;;;5028343;28;20166;-76
2022/11/26 11:34:09;;;;;;;6.47;3.58;;;12.10;99.90;;;;;;5029960;28;20166;-74
2022/11/26 11:36:35;;;;;;;6.15;3.45;;;12.20;99.90;;;;;;5029065;28;20170;-75
2022/11/26 11:39:03;;;;;;;6.72;3.00;;;12.30;99.90;;;;;;5012677;28;20248;-75
2022/11/26 11:41:35;;;;;;;5.35;2.63;;;12.30;99.90;;;;;;5029892;28;20216;-76
2022/11/26 11:44:24;;;;;;;7.77;2.87;;;12.40;99.90;;;;;;5028452;28;20192;-75
2022/11/26 11:47:33;;;;;;;9.90;3.70;;;12.40;99.90;;;;;;5028047;28;20662;-75
2022/11/26 11:50:33;;;;;;;9.82;4.85;;;12.50;99.90;;;;;;5029584;28;21080;-75
2022/11/26 11:53:17;;;;;;;13.27;4.00;;;12.50;99.90;;;;;;5028123;28;20260;-76
2022/11/26 11:56:17;;;;;;;6.15;4.00;;;12.50;99.90;;;;;;5031895;28;20560;-75
2022/11/26 11:59:17;;;;;;;9.20;4.07;;;12.50;99.90;;;;;;5028474;28;20227;-76
2022/11/26 12:02:36;;;;;;;7.30;3.35;;;12.50;99.90;;;;;;5031879;28;21154;-77
2022/11/26 12:05:32;;;;;;;5.73;3.20;;;12.50;99.90;;;;;;4939396;29;20173;-77
2022/11/26 12:08:14;;;;;;;5.60;3.77;;;12.50;99.90;;;;;;4925531;29;21012;-76
2022/11/26 12:10:53;;;;;;;6.97;3.20;;;12.50;99.90;;;;;;5030005;28;20587;-76
2022/11/26 12:13:22;;;;;;;4.80;3.22;;;12.50;99.90;;;;;;5030205;28;20174;-77
2022/11/26 12:15:53;;;;;;;7.10;3.50;;;12.60;99.90;;;;;;5047082;28;20265;-77
2022/11/26 12:18:25;;;;;;;8.40;4.67;;;12.60;99.90;;;;;;5051170;28;20251;-78
2022/11/26 12:21:05;;;;;;;5.50;3.30;;;12.60;99.90;;;;;;5050546;28;20582;-77
2022/11/26 12:23:45;;;;;;;7.37;3.27;;;12.70;99.90;;;;;;5048845;28;20576;-77
2022/11/26 12:26:20;;;;;;;4.90;2.50;;;12.70;99.90;;;;;;5046108;28;20617;-78
2022/11/26 12:29:17;;;;;;;5.53;2.77;;;12.70;99.90;;;;;;5041872;28;20646;-78
2022/11/26 12:32:00;;;;;;;7.27;2.87;;;12.80;99.90;;;;;;5076326;22;20683;-76
2022/11/26 12:35:09;;;;;;;5.30;3.53;;;12.70;99.90;;;;;;4988392;28;20588;-76
2022/11/26 12:37:41;;;;;;;5.10;3.07;;;12.70;99.90;;;;;;5017763;28;21436;-75
2022/11/26 12:40:07;;;;;;;7.27;3.57;;;12.70;99.90;;;;;;5026636;28;20576;-75
2022/11/26 12:42:44;;;;;;;9.70;3.80;;;12.80;99.90;;;;;;5030918;28;20641;-75
2022/11/26 12:45:15;;;;;;;5.68;2.80;;;12.70;99.90;;;;;;5015164;28;20938;-76
2022/11/26 12:47:49;;;;;;;7.18;3.15;;;12.80;99.90;;;;;;5032469;28;20641;-75
2022/11/26 12:50:45;;;;;;;6.63;3.70;;;12.70;99.90;;;;;;5033887;28;20736;-75
2022/11/26 12:53:35;;;;;;;5.68;3.28;;;12.70;99.90;;;;;;5031603;28;20189;-75
2022/11/26 12:56:30;;;;;;;7.73;2.57;;;12.60;99.90;;;;;;5032562;28;20506;-75
2022/11/26 12:59:17;;;;;;;7.40;2.85;;;12.60;99.90;;;;;;5014517;28;21246;-75
2022/11/26 13:01:43;;;;;;;5.33;2.37;;;12.60;99.90;;;;;;5031760;28;20185;-76
2022/11/26 13:04:09;;;;;;;5.17;2.80;;;12.60;99.90;;;;;;5032021;28;20564;-75
2022/11/26 13:06:54;;;;;;;5.77;2.70;;;12.60;99.90;;;;;;5032280;28;20177;-76
2022/11/26 13:09:35;;;;;;;4.55;2.25;;;12.50;99.90;;;;;;5030582;28;20619;-75